createdAt,value
2016-08-21T00:00:42.039Z,0
2016-08-21T00:01:42.195Z,0
2016-08-21T00:02:41.032Z,0
2016-08-21T00:03:40.033Z,0
2016-08-21T00:04:43.327Z,0
2016-08-21T00:05:40.827Z,0
2016-08-21T00:06:39.852Z,0
2016-08-21T00:07:41.005Z,0
2016-08-21T00:08:40.618Z,0
2016-08-21T00:09:40.548Z,0
2016-08-21T00:10:40.050Z,0
2016-08-21T00:11:42.314Z,0
2016-08-21T00:12:41.512Z,0
2016-08-21T00:13:39.823Z,0
2016-08-21T00:14:40.097Z,0
2016-08-21T00:15:41.058Z,0
2016-08-21T00:16:40.773Z,0
2016-08-21T00:17:40.509Z,0
2016-08-21T00:18:41.574Z,0
2016-08-21T00:19:42.374Z,0
2016-08-21T00:20:40.548Z,0
2016-08-21T00:21:40.827Z,0
2016-08-21T00:22:40.476Z,0
2016-08-21T00:23:41.670Z,0
2016-08-21T00:24:39.672Z,0
2016-08-21T00:25:39.655Z,0
2016-08-21T00:26:40.714Z,0
2016-08-21T00:27:41.089Z,0
2016-08-21T00:28:41.653Z,0
2016-08-21T00:29:41.986Z,0
2016-08-21T00:30:40.701Z,0
2016-08-21T00:31:42.956Z,0
2016-08-21T00:32:41.612Z,0
2016-08-21T00:33:39.993Z,0
2016-08-21T00:34:41.486Z,0
2016-08-21T00:35:42.509Z,0
2016-08-21T00:36:40.952Z,0
2016-08-21T00:37:39.966Z,0
2016-08-21T00:38:42.703Z,0
2016-08-21T00:39:43.228Z,0
2016-08-21T00:40:40.641Z,0
2016-08-21T00:41:40.811Z,0
2016-08-21T00:42:41.177Z,0
2016-08-21T00:43:42.954Z,0
2016-08-21T00:44:42.644Z,0
2016-08-21T00:45:42.388Z,0
2016-08-21T00:46:44.067Z,0
2016-08-21T00:47:41.551Z,0
2016-08-21T00:48:40.833Z,0
2016-08-21T00:49:40.883Z,0
2016-08-21T00:50:42.032Z,0
2016-08-21T00:51:42.475Z,0
2016-08-21T00:52:41.433Z,0
2016-08-21T00:53:42.678Z,0
2016-08-21T00:54:42.150Z,0
2016-08-21T00:55:42.560Z,0
2016-08-21T00:56:44.570Z,0
2016-08-21T00:57:44.076Z,0
2016-08-21T00:58:42.540Z,0
2016-08-21T00:59:41.363Z,0
2016-08-21T01:00:41.285Z,0
2016-08-21T01:01:42.967Z,0
2016-08-21T01:02:42.922Z,0
2016-08-21T01:03:42.413Z,0
2016-08-21T01:04:41.737Z,0
2016-08-21T01:05:42.443Z,0
2016-08-21T01:06:42.450Z,0
2016-08-21T01:07:41.022Z,0
2016-08-21T01:08:44.007Z,0
2016-08-21T01:09:40.624Z,0
2016-08-21T01:10:44.320Z,0
2016-08-21T01:11:45.521Z,0
2016-08-21T01:12:43.392Z,0
2016-08-21T01:13:41.852Z,0
2016-08-21T01:14:42.613Z,0
2016-08-21T01:15:44.127Z,0
2016-08-21T01:16:43.951Z,0
2016-08-21T01:17:45.364Z,0
2016-08-21T01:18:42.999Z,0
2016-08-21T01:19:45.218Z,0
2016-08-21T01:20:43.264Z,0
2016-08-21T01:21:43.554Z,0
2016-08-21T01:22:45.099Z,0
2016-08-21T01:23:43.337Z,0
2016-08-21T01:24:41.980Z,0
2016-08-21T01:25:44.496Z,0
2016-08-21T01:26:42.822Z,0
2016-08-21T01:27:43.608Z,0
2016-08-21T01:28:42.110Z,0
2016-08-21T01:29:42.751Z,0
2016-08-21T01:30:41.507Z,0
2016-08-21T01:31:41.409Z,0
2016-08-21T01:32:43.142Z,0
2016-08-21T01:33:42.639Z,0
2016-08-21T01:34:42.419Z,0
2016-08-21T01:35:43.205Z,0
2016-08-21T01:36:42.088Z,0
2016-08-21T01:37:45.677Z,0
2016-08-21T01:38:42.842Z,0
2016-08-21T01:39:41.587Z,0
2016-08-21T01:40:42.452Z,0
2016-08-21T01:41:42.280Z,0
2016-08-21T01:42:42.259Z,0
2016-08-21T01:43:43.060Z,0
2016-08-21T01:44:43.401Z,0
2016-08-21T01:45:42.575Z,0
2016-08-21T01:46:42.160Z,0
2016-08-21T01:47:44.133Z,0
2016-08-21T01:48:43.132Z,0
2016-08-21T01:49:43.920Z,0
2016-08-21T01:50:44.376Z,0
2016-08-21T01:51:44.600Z,0
2016-08-21T01:52:42.566Z,0
2016-08-21T01:53:42.907Z,0
2016-08-21T01:54:44.762Z,0
2016-08-21T01:55:42.607Z,0
2016-08-21T01:56:43.254Z,0
2016-08-21T01:57:44.226Z,0
2016-08-21T01:58:43.984Z,0
2016-08-21T01:59:43.830Z,0
2016-08-21T02:00:43.511Z,0
2016-08-21T02:01:41.873Z,0
2016-08-21T02:02:42.405Z,0
2016-08-21T02:03:41.160Z,0
2016-08-21T02:04:44.749Z,0
2016-08-21T02:05:44.306Z,0
2016-08-21T02:06:43.379Z,0
2016-08-21T02:07:44.611Z,0
2016-08-21T02:08:42.643Z,0
2016-08-21T02:09:42.823Z,0
2016-08-21T02:10:43.836Z,0
2016-08-21T02:11:43.116Z,0
2016-08-21T02:12:44.095Z,0
2016-08-21T02:13:42.839Z,0
2016-08-21T02:14:42.980Z,0
2016-08-21T02:15:44.585Z,0
2016-08-21T02:16:42.774Z,0
2016-08-21T02:17:43.855Z,0
2016-08-21T02:18:42.918Z,0
2016-08-21T02:19:44.546Z,0
2016-08-21T02:20:43.310Z,0
2016-08-21T02:21:44.258Z,0
2016-08-21T02:22:44.630Z,0
2016-08-21T02:23:41.788Z,0
2016-08-21T02:24:45.358Z,0
2016-08-21T02:25:44.734Z,0
2016-08-21T02:26:44.645Z,0
2016-08-21T02:27:45.105Z,0
2016-08-21T02:28:44.578Z,0
2016-08-21T02:29:45.416Z,0
2016-08-21T02:30:44.572Z,0
2016-08-21T02:31:45.058Z,0
2016-08-21T02:32:44.642Z,0
2016-08-21T02:33:44.344Z,0
2016-08-21T02:34:42.222Z,0
2016-08-21T02:35:43.673Z,0
2016-08-21T02:36:44.498Z,0
2016-08-21T02:37:43.538Z,0
2016-08-21T02:38:45.103Z,0
2016-08-21T02:39:46.377Z,0
2016-08-21T02:40:44.138Z,0
2016-08-21T02:41:42.964Z,0
2016-08-21T02:42:43.210Z,0
2016-08-21T02:43:44.682Z,0
2016-08-21T02:44:44.386Z,0
2016-08-21T02:45:45.430Z,0
2016-08-21T02:46:44.689Z,0
2016-08-21T02:47:42.775Z,0
2016-08-21T02:48:45.404Z,0
2016-08-21T02:49:44.238Z,0
2016-08-21T02:50:47.447Z,0
2016-08-21T02:51:47.028Z,0
2016-08-21T02:52:44.620Z,0
2016-08-21T02:53:45.504Z,0
2016-08-21T02:54:45.374Z,0
2016-08-21T02:55:46.348Z,0
2016-08-21T02:56:44.466Z,0
2016-08-21T02:57:46.274Z,0
2016-08-21T02:58:46.177Z,0
2016-08-21T02:59:44.677Z,0
2016-08-21T03:00:44.177Z,0
2016-08-21T03:01:46.861Z,0
2016-08-21T03:02:46.535Z,0
2016-08-21T03:03:43.193Z,0
2016-08-21T03:04:43.222Z,0
2016-08-21T03:05:44.816Z,0
2016-08-21T03:06:45.609Z,0
2016-08-21T03:07:44.330Z,0
2016-08-21T03:08:45.283Z,0
2016-08-21T03:09:44.577Z,0
2016-08-21T03:10:44.364Z,0
2016-08-21T03:11:43.977Z,0
2016-08-21T03:12:46.211Z,0
2016-08-21T03:13:45.954Z,0
2016-08-21T03:14:45.076Z,0
2016-08-21T03:15:45.824Z,0
2016-08-21T03:16:46.242Z,0
2016-08-21T03:17:45.882Z,0
2016-08-21T03:18:46.084Z,0
2016-08-21T03:19:45.238Z,0
2016-08-21T03:20:47.085Z,0
2016-08-21T03:21:44.117Z,0
2016-08-21T03:22:44.692Z,0
2016-08-21T03:23:45.192Z,0
2016-08-21T03:24:47.300Z,0
2016-08-21T03:25:45.896Z,0
2016-08-21T03:26:46.786Z,0
2016-08-21T03:27:45.591Z,0
2016-08-21T03:28:46.676Z,0
2016-08-21T03:29:44.498Z,0
2016-08-21T03:30:45.391Z,0
2016-08-21T03:31:46.170Z,0
2016-08-21T03:32:45.016Z,0
2016-08-21T03:33:45.343Z,0
2016-08-21T03:34:45.752Z,0
2016-08-21T03:35:47.045Z,0
2016-08-21T03:36:46.489Z,0
2016-08-21T03:37:45.861Z,0
2016-08-21T03:38:45.540Z,0
2016-08-21T03:39:44.545Z,0
2016-08-21T03:40:46.047Z,0
2016-08-21T03:41:46.357Z,0
2016-08-21T03:42:45.456Z,0
2016-08-21T03:43:46.847Z,0
2016-08-21T03:44:45.365Z,0
2016-08-21T03:45:45.863Z,0
2016-08-21T03:46:45.980Z,0
2016-08-21T03:47:45.731Z,0
2016-08-21T03:48:46.852Z,0
2016-08-21T03:49:47.742Z,0
2016-08-21T03:50:46.729Z,0
2016-08-21T03:51:48.120Z,0
2016-08-21T03:52:45.332Z,0
2016-08-21T03:53:46.782Z,0
2016-08-21T03:54:45.317Z,0
2016-08-21T03:55:46.777Z,0
2016-08-21T03:56:48.207Z,0
2016-08-21T03:57:45.823Z,0
2016-08-21T03:58:45.293Z,0
2016-08-21T03:59:45.309Z,0
2016-08-21T04:00:45.782Z,0
2016-08-21T04:01:46.187Z,0
2016-08-21T04:02:45.886Z,0
2016-08-21T04:03:46.883Z,0
2016-08-21T04:04:44.627Z,0
2016-08-21T04:05:46.570Z,0
2016-08-21T04:06:46.002Z,0
2016-08-21T04:07:46.377Z,0
2016-08-21T04:08:47.129Z,5
2016-08-21T04:09:47.563Z,5
2016-08-21T04:10:46.134Z,5
2016-08-21T04:11:47.530Z,5
2016-08-21T04:12:44.944Z,5
2016-08-21T04:13:48.492Z,10
2016-08-21T04:14:44.682Z,10
2016-08-21T04:15:47.753Z,10
2016-08-21T04:16:46.545Z,15
2016-08-21T04:17:46.607Z,15
2016-08-21T04:18:45.779Z,15
2016-08-21T04:19:45.357Z,15
2016-08-21T04:20:45.320Z,20
2016-08-21T04:21:45.266Z,20
2016-08-21T04:22:47.093Z,20
2016-08-21T04:23:46.117Z,25
2016-08-21T04:24:46.991Z,25
2016-08-21T04:25:47.024Z,30
2016-08-21T04:26:46.466Z,35
2016-08-21T04:27:46.657Z,35
2016-08-21T04:28:45.455Z,40
2016-08-21T04:29:46.473Z,40
2016-08-21T04:30:47.271Z,40
2016-08-21T04:31:47.030Z,45
2016-08-21T04:32:46.931Z,45
2016-08-21T04:33:47.744Z,50
2016-08-21T04:34:45.405Z,50
2016-08-21T04:35:49.012Z,55
2016-08-21T04:36:46.242Z,60
2016-08-21T04:37:46.596Z,60
2016-08-21T04:38:45.695Z,60
2016-08-21T04:39:46.116Z,65
2016-08-21T04:40:49.319Z,65
2016-08-21T04:41:46.763Z,70
2016-08-21T04:42:47.409Z,75
2016-08-21T04:43:47.892Z,80
2016-08-21T04:44:47.481Z,85
2016-08-21T04:45:46.845Z,85
2016-08-21T04:46:47.202Z,85
2016-08-21T04:47:48.166Z,85
2016-08-21T04:48:48.338Z,85
2016-08-21T04:49:46.451Z,90
2016-08-21T04:50:53.212Z,90
2016-08-21T04:51:49.368Z,95
2016-08-21T04:52:47.387Z,100
2016-08-21T04:53:48.321Z,100
2016-08-21T04:54:47.436Z,105
2016-08-21T04:55:46.146Z,110
2016-08-21T04:56:45.997Z,115
2016-08-21T04:57:48.119Z,120
2016-08-21T04:58:46.894Z,120
2016-08-21T04:59:47.592Z,125
2016-08-21T05:00:48.042Z,130
2016-08-21T05:01:49.356Z,135
2016-08-21T05:02:48.096Z,140
2016-08-21T05:03:47.986Z,150
2016-08-21T05:04:47.616Z,160
2016-08-21T05:05:46.667Z,170
2016-08-21T05:06:47.901Z,165
2016-08-21T05:07:48.064Z,170
2016-08-21T05:08:47.681Z,170
2016-08-21T05:09:45.958Z,175
2016-08-21T05:10:49.174Z,180
2016-08-21T05:11:50.149Z,185
2016-08-21T05:12:47.329Z,190
2016-08-21T05:13:48.264Z,200
2016-08-21T05:14:47.173Z,200
2016-08-21T05:15:46.920Z,205
2016-08-21T05:16:48.461Z,205
2016-08-21T05:17:46.714Z,210
2016-08-21T05:18:48.957Z,215
2016-08-21T05:19:47.039Z,220
2016-08-21T05:20:47.920Z,225
2016-08-21T05:21:47.601Z,230
2016-08-21T05:22:49.529Z,235
2016-08-21T05:23:49.515Z,235
2016-08-21T05:24:47.529Z,240
2016-08-21T05:25:49.532Z,240
2016-08-21T05:26:49.510Z,245
2016-08-21T05:27:47.770Z,250
2016-08-21T05:28:50.479Z,255
2016-08-21T05:29:50.931Z,265
2016-08-21T05:30:47.977Z,265
2016-08-21T05:31:49.433Z,265
2016-08-21T05:32:50.555Z,270
2016-08-21T05:33:48.572Z,285
2016-08-21T05:34:48.384Z,300
2016-08-21T05:35:48.854Z,320
2016-08-21T05:36:48.405Z,340
2016-08-21T05:37:48.366Z,340
2016-08-21T05:38:48.350Z,325
2016-08-21T05:39:50.471Z,325
2016-08-21T05:40:49.490Z,335
2016-08-21T05:41:49.268Z,325
2016-08-21T05:42:48.207Z,330
2016-08-21T05:43:49.674Z,335
2016-08-21T05:44:50.866Z,340
2016-08-21T05:45:50.319Z,355
2016-08-21T05:46:50.604Z,370
2016-08-21T05:47:48.191Z,375
2016-08-21T05:48:50.064Z,375
2016-08-21T05:49:49.067Z,390
2016-08-21T05:50:49.373Z,395
2016-08-21T05:51:48.216Z,405
2016-08-21T05:52:47.523Z,415
2016-08-21T05:53:50.266Z,425
2016-08-21T05:54:50.547Z,435
2016-08-21T05:55:48.081Z,445
2016-08-21T05:56:47.727Z,450
2016-08-21T05:57:47.657Z,505
2016-08-21T05:58:49.638Z,575
2016-08-21T05:59:48.156Z,585
2016-08-21T06:00:51.240Z,595
2016-08-21T06:01:50.304Z,595
2016-08-21T06:02:49.536Z,600
2016-08-21T06:03:48.658Z,620
2016-08-21T06:04:49.464Z,645
2016-08-21T06:05:48.505Z,660
2016-08-21T06:06:49.724Z,660
2016-08-21T06:07:48.491Z,665
2016-08-21T06:08:49.459Z,680
2016-08-21T06:09:48.558Z,730
2016-08-21T06:10:50.314Z,790
2016-08-21T06:11:47.173Z,800
2016-08-21T06:12:49.038Z,805
2016-08-21T06:13:49.323Z,830
2016-08-21T06:14:47.555Z,810
2016-08-21T06:15:51.727Z,780
2016-08-21T06:16:50.467Z,790
2016-08-21T06:17:49.008Z,800
2016-08-21T06:18:49.685Z,745
2016-08-21T06:19:48.480Z,750
2016-08-21T06:20:50.136Z,790
2016-08-21T06:21:50.643Z,780
2016-08-21T06:22:49.385Z,785
2016-08-21T06:23:48.402Z,870
2016-08-21T06:24:50.604Z,885
2016-08-21T06:25:50.317Z,850
2016-08-21T06:26:49.543Z,895
2016-08-21T06:27:49.655Z,865
2016-08-21T06:28:50.725Z,895
2016-08-21T06:29:52.618Z,675
2016-08-21T06:30:49.232Z,545
2016-08-21T06:31:49.017Z,580
2016-08-21T06:32:49.434Z,605
2016-08-21T06:33:48.485Z,625
2016-08-21T06:34:48.377Z,615
2016-08-21T06:35:49.178Z,670
2016-08-21T06:36:49.727Z,535
2016-08-21T06:37:49.730Z,485
2016-08-21T06:38:50.241Z,465
2016-08-21T06:39:48.444Z,470
2016-08-21T06:40:51.401Z,565
2016-08-21T06:41:49.306Z,730
2016-08-21T06:42:52.101Z,910
2016-08-21T06:43:49.862Z,860
2016-08-21T06:44:50.782Z,1180
2016-08-21T06:45:48.785Z,1260
2016-08-21T06:46:49.661Z,1340
2016-08-21T06:47:50.245Z,1465
2016-08-21T06:48:49.888Z,1070
2016-08-21T06:49:51.859Z,1030
2016-08-21T06:50:50.463Z,975
2016-08-21T06:51:48.604Z,1010
2016-08-21T06:52:50.899Z,1830
2016-08-21T06:53:50.561Z,1940
2016-08-21T06:54:49.257Z,1105
2016-08-21T06:55:49.828Z,1135
2016-08-21T06:56:50.007Z,1205
2016-08-21T06:57:49.588Z,1065
2016-08-21T06:58:52.070Z,925
2016-08-21T06:59:50.306Z,935
2016-08-21T07:00:50.782Z,955
2016-08-21T07:01:50.450Z,785
2016-08-21T07:02:50.425Z,655
2016-08-21T07:03:49.674Z,650
2016-08-21T07:04:51.487Z,660
2016-08-21T07:05:50.734Z,665
2016-08-21T07:06:50.824Z,660
2016-08-21T07:07:51.975Z,640
2016-08-21T07:08:49.681Z,620
2016-08-21T07:09:51.185Z,595
2016-08-21T07:10:50.063Z,575
2016-08-21T07:11:50.516Z,565
2016-08-21T07:12:51.064Z,560
2016-08-21T07:13:49.773Z,570
2016-08-21T07:14:50.578Z,570
2016-08-21T07:15:52.614Z,575
2016-08-21T07:16:49.862Z,585
2016-08-21T07:17:51.315Z,605
2016-08-21T07:18:50.572Z,620
2016-08-21T07:19:50.768Z,615
2016-08-21T07:20:50.455Z,595
2016-08-21T07:21:50.044Z,570
2016-08-21T07:22:52.141Z,545
2016-08-21T07:23:51.173Z,520
2016-08-21T07:24:52.248Z,515
2016-08-21T07:25:51.894Z,520
2016-08-21T07:26:50.534Z,530
2016-08-21T07:27:51.649Z,550
2016-08-21T07:28:49.635Z,560
2016-08-21T07:29:52.421Z,580
2016-08-21T07:30:50.611Z,595
2016-08-21T07:31:52.367Z,620
2016-08-21T07:33:50.559Z,660
2016-08-21T07:34:52.702Z,685
2016-08-21T07:35:52.680Z,705
2016-08-21T07:36:51.076Z,715
2016-08-21T07:37:52.900Z,725
2016-08-21T07:38:50.554Z,730
2016-08-21T07:39:52.586Z,730
2016-08-21T07:40:51.338Z,740
2016-08-21T07:41:51.092Z,760
2016-08-21T07:42:51.147Z,775
2016-08-21T07:43:51.278Z,790
2016-08-21T07:44:51.992Z,810
2016-08-21T07:45:52.240Z,805
2016-08-21T07:46:51.957Z,805
2016-08-21T07:47:50.579Z,820
2016-08-21T07:48:50.351Z,835
2016-08-21T07:49:53.641Z,835
2016-08-21T07:50:52.153Z,825
2016-08-21T07:51:51.053Z,830
2016-08-21T07:52:52.955Z,830
2016-08-21T07:53:52.831Z,810
2016-08-21T07:54:52.587Z,785
2016-08-21T07:55:51.689Z,770
2016-08-21T07:56:52.410Z,780
2016-08-21T07:57:53.529Z,810
2016-08-21T07:58:54.710Z,845
2016-08-21T07:59:51.501Z,880
2016-08-21T08:00:52.468Z,905
2016-08-21T08:01:54.167Z,940
2016-08-21T08:02:52.793Z,945
2016-08-21T08:03:52.098Z,975
2016-08-21T08:04:53.521Z,1000
2016-08-21T08:05:52.302Z,1055
2016-08-21T08:06:53.725Z,1140
2016-08-21T08:07:54.402Z,1055
2016-08-21T08:08:51.095Z,990
2016-08-21T08:09:50.755Z,1010
2016-08-21T08:10:53.076Z,985
2016-08-21T08:11:52.564Z,990
2016-08-21T08:12:52.580Z,1095
2016-08-21T08:13:51.095Z,1120
2016-08-21T08:14:53.203Z,1200
2016-08-21T08:15:53.454Z,1170
2016-08-21T08:16:50.416Z,1190
2016-08-21T08:17:52.439Z,1200
2016-08-21T08:18:53.679Z,1150
2016-08-21T08:19:52.592Z,1150
2016-08-21T08:20:54.770Z,1155
2016-08-21T08:21:54.426Z,1130
2016-08-21T08:22:52.717Z,1090
2016-08-21T08:23:55.419Z,1070
2016-08-21T08:24:53.218Z,1080
2016-08-21T08:25:54.719Z,1095
2016-08-21T08:26:53.220Z,1110
2016-08-21T08:27:52.282Z,1130
2016-08-21T08:28:52.535Z,1125
2016-08-21T08:29:52.835Z,1430
2016-08-21T08:30:52.860Z,1110
2016-08-21T08:31:53.286Z,1105
2016-08-21T08:32:52.707Z,1100
2016-08-21T08:33:52.366Z,1105
2016-08-21T08:34:53.228Z,1125
2016-08-21T08:35:53.807Z,1095
2016-08-21T08:36:53.246Z,1085
2016-08-21T08:37:51.792Z,1160
2016-08-21T08:38:54.087Z,1245
2016-08-21T08:39:52.687Z,1295
2016-08-21T08:40:53.538Z,1350
2016-08-21T08:41:54.795Z,1410
2016-08-21T08:42:54.529Z,1480
2016-08-21T08:43:52.668Z,1500
2016-08-21T08:44:55.437Z,1525
2016-08-21T08:45:55.663Z,1540
2016-08-21T08:46:54.094Z,1585
2016-08-21T08:47:52.713Z,1570
2016-08-21T08:48:52.304Z,1515
2016-08-21T08:49:53.582Z,1435
2016-08-21T08:50:53.649Z,1415
2016-08-21T08:51:53.430Z,1435
2016-08-21T08:52:52.805Z,1450
2016-08-21T08:53:52.847Z,1455
2016-08-21T08:54:53.293Z,1435
2016-08-21T08:55:54.105Z,1445
2016-08-21T08:56:55.426Z,1455
2016-08-21T08:57:54.910Z,1395
2016-08-21T08:58:52.353Z,1400
2016-08-21T08:59:54.880Z,1360
2016-08-21T09:00:53.754Z,1305
2016-08-21T09:01:55.507Z,1255
2016-08-21T09:02:55.203Z,1210
2016-08-21T09:03:53.470Z,1135
2016-08-21T09:04:52.755Z,1085
2016-08-21T09:05:53.544Z,1080
2016-08-21T09:06:53.477Z,1175
2016-08-21T09:07:53.645Z,1475
2016-08-21T09:08:55.218Z,1580
2016-08-21T09:09:54.370Z,1520
2016-08-21T09:10:54.791Z,1660
2016-08-21T09:11:55.299Z,1520
2016-08-21T09:12:54.539Z,1535
2016-08-21T09:13:55.300Z,1490
2016-08-21T09:14:54.512Z,1370
2016-08-21T09:15:54.404Z,1355
2016-08-21T09:16:54.549Z,1400
2016-08-21T09:17:54.032Z,1370
2016-08-21T09:18:54.640Z,1375
2016-08-21T09:19:54.667Z,1425
2016-08-21T09:20:55.209Z,1470
2016-08-21T09:21:55.298Z,1505
2016-08-21T09:22:52.435Z,1620
2016-08-21T09:23:55.577Z,1750
2016-08-21T09:24:53.318Z,1755
2016-08-21T09:25:53.609Z,1725
2016-08-21T09:26:54.186Z,1935
2016-08-21T09:27:53.842Z,1785
2016-08-21T09:28:54.685Z,1740
2016-08-21T09:29:54.426Z,1915
2016-08-21T09:30:54.642Z,2600
2016-08-21T09:31:55.436Z,2785
2016-08-21T09:32:54.122Z,3390
2016-08-21T09:33:54.395Z,3100
2016-08-21T09:34:55.094Z,2440
2016-08-21T09:35:57.159Z,1630
2016-08-21T09:36:54.810Z,2450
2016-08-21T09:37:54.986Z,2470
2016-08-21T09:38:53.817Z,2470
2016-08-21T09:39:54.697Z,1730
2016-08-21T09:40:54.593Z,1580
2016-08-21T09:41:53.096Z,1980
2016-08-21T09:42:54.117Z,2245
2016-08-21T09:43:56.173Z,1685
2016-08-21T09:44:57.146Z,1835
2016-08-21T09:45:55.468Z,1685
2016-08-21T09:46:53.456Z,1510
2016-08-21T09:47:56.156Z,1295
2016-08-21T09:48:53.397Z,1305
2016-08-21T09:49:55.877Z,1445
2016-08-21T09:50:55.540Z,1435
2016-08-21T09:51:55.392Z,1675
2016-08-21T09:52:56.422Z,1485
2016-08-21T09:53:55.375Z,1265
2016-08-21T09:54:56.589Z,1155
2016-08-21T09:55:56.043Z,1010
2016-08-21T09:56:57.472Z,1050
2016-08-21T09:57:54.780Z,1130
2016-08-21T09:58:56.414Z,1220
2016-08-21T09:59:55.757Z,1370
2016-08-21T10:00:54.981Z,1670
2016-08-21T10:01:55.123Z,2045
2016-08-21T10:02:57.300Z,1365
2016-08-21T10:03:54.430Z,1115
2016-08-21T10:04:54.381Z,890
2016-08-21T10:05:57.089Z,730
2016-08-21T10:06:55.146Z,660
2016-08-21T10:07:56.846Z,655
2016-08-21T10:08:54.682Z,670
2016-08-21T10:09:56.522Z,690
2016-08-21T10:10:55.576Z,695
2016-08-21T10:11:57.840Z,655
2016-08-21T10:12:56.259Z,625
2016-08-21T10:13:57.786Z,625
2016-08-21T10:14:55.373Z,635
2016-08-21T10:15:55.989Z,635
2016-08-21T10:16:56.363Z,630
2016-08-21T10:17:56.238Z,645
2016-08-21T10:18:55.488Z,680
2016-08-21T10:19:56.948Z,705
2016-08-21T10:20:56.858Z,745
2016-08-21T10:21:58.397Z,805
2016-08-21T10:22:56.229Z,865
2016-08-21T10:23:57.615Z,995
2016-08-21T10:24:57.108Z,1695
2016-08-21T10:25:55.135Z,1720
2016-08-21T10:26:57.634Z,3160
2016-08-21T10:27:57.448Z,2220
2016-08-21T10:28:55.795Z,3375
2016-08-21T10:29:56.496Z,2545
2016-08-21T10:30:55.798Z,2930
2016-08-21T10:31:57.287Z,3145
2016-08-21T10:32:58.457Z,3435
2016-08-21T10:33:57.638Z,3525
2016-08-21T10:34:57.353Z,3525
2016-08-21T10:35:57.735Z,3300
2016-08-21T10:36:55.857Z,3275
2016-08-21T10:37:57.704Z,3595
2016-08-21T10:38:57.755Z,2120
2016-08-21T10:39:56.784Z,1685
2016-08-21T10:40:57.070Z,1740
2016-08-21T10:41:55.593Z,2165
2016-08-21T10:42:57.180Z,1775
2016-08-21T10:43:58.031Z,1695
2016-08-21T10:44:57.060Z,1660
2016-08-21T10:45:57.335Z,1810
2016-08-21T10:46:57.145Z,1825
2016-08-21T10:47:58.483Z,2090
2016-08-21T10:48:58.161Z,2530
2016-08-21T10:49:57.023Z,1345
2016-08-21T10:50:56.724Z,1775
2016-08-21T10:51:57.427Z,4085
2016-08-21T10:52:56.659Z,3600
2016-08-21T10:53:57.766Z,2755
2016-08-21T10:54:56.717Z,2815
2016-08-21T10:55:58.363Z,3430
2016-08-21T10:56:57.410Z,2915
2016-08-21T10:57:58.717Z,3370
2016-08-21T10:58:57.775Z,3110
2016-08-21T10:59:59.343Z,3475
2016-08-21T11:00:58.046Z,3575
2016-08-21T11:01:58.115Z,3765
2016-08-21T11:02:57.362Z,4135
2016-08-21T11:03:57.249Z,2850
2016-08-21T11:04:57.575Z,2865
2016-08-21T11:05:59.124Z,905
2016-08-21T11:07:00.883Z,4360
2016-08-21T11:07:56.960Z,3110
2016-08-21T11:08:57.364Z,2550
2016-08-21T11:09:58.518Z,1830
2016-08-21T11:10:57.072Z,915
2016-08-21T11:11:59.522Z,910
2016-08-21T11:13:00.959Z,860
2016-08-21T11:13:59.785Z,870
2016-08-21T11:14:56.806Z,920
2016-08-21T11:15:57.731Z,3100
2016-08-21T11:16:58.203Z,895
2016-08-21T11:17:57.779Z,970
2016-08-21T11:19:01.076Z,3005
2016-08-21T11:19:56.551Z,2820
2016-08-21T11:20:59.558Z,2310
2016-08-21T11:21:57.972Z,3775
2016-08-21T11:22:58.022Z,3850
2016-08-21T11:23:58.740Z,795
2016-08-21T11:24:59.551Z,845
2016-08-21T11:25:56.614Z,1010
2016-08-21T11:26:56.864Z,3245
2016-08-21T11:27:57.519Z,4050
2016-08-21T11:28:59.016Z,3725
2016-08-21T11:29:59.199Z,3240
2016-08-21T11:30:58.265Z,3405
2016-08-21T11:31:58.005Z,3640
2016-08-21T11:32:58.731Z,4030
2016-08-21T11:33:59.054Z,4185
2016-08-21T11:34:57.913Z,1110
2016-08-21T11:35:58.917Z,1060
2016-08-21T11:36:59.505Z,3015
2016-08-21T11:37:59.420Z,1110
2016-08-21T11:38:56.744Z,3895
2016-08-21T11:39:59.564Z,4010
2016-08-21T11:41:00.823Z,5035
2016-08-21T11:41:57.664Z,4580
2016-08-21T11:42:58.407Z,3475
2016-08-21T11:43:59.995Z,2945
2016-08-21T11:44:58.971Z,2285
2016-08-21T11:45:58.910Z,1370
2016-08-21T11:46:58.883Z,1250
2016-08-21T11:48:00.557Z,1235
2016-08-21T11:48:58.379Z,1245
2016-08-21T11:49:58.250Z,1310
2016-08-21T11:50:59.582Z,1520
2016-08-21T11:51:59.960Z,4185
2016-08-21T11:52:58.668Z,3475
2016-08-21T11:53:59.506Z,3525
2016-08-21T11:55:01.302Z,4940
2016-08-21T11:55:58.636Z,4260
2016-08-21T11:57:01.284Z,2745
2016-08-21T11:57:57.993Z,1485
2016-08-21T11:58:58.504Z,1825
2016-08-21T11:59:58.542Z,2435
2016-08-21T12:00:59.631Z,3930
2016-08-21T12:02:00.805Z,3800
2016-08-21T12:02:59.139Z,3055
2016-08-21T12:04:01.770Z,3370
2016-08-21T12:04:58.972Z,3450
2016-08-21T12:06:01.199Z,1050
2016-08-21T12:07:00.405Z,965
2016-08-21T12:08:01.092Z,3210
2016-08-21T12:09:00.033Z,2360
2016-08-21T12:09:59.523Z,3760
2016-08-21T12:10:59.958Z,760
2016-08-21T12:12:00.220Z,725
2016-08-21T12:13:02.208Z,775
2016-08-21T12:14:01.265Z,815
2016-08-21T12:15:01.162Z,895
2016-08-21T12:15:59.101Z,1105
2016-08-21T12:17:00.180Z,3580
2016-08-21T12:18:01.407Z,3595
2016-08-21T12:18:59.602Z,1610
2016-08-21T12:20:01.860Z,1170
2016-08-21T12:21:00.500Z,1040
2016-08-21T12:21:59.449Z,970
2016-08-21T12:23:00.226Z,920
2016-08-21T12:24:00.164Z,940
2016-08-21T12:24:59.313Z,1010
2016-08-21T12:26:01.719Z,3455
2016-08-21T12:26:59.326Z,1615
2016-08-21T12:27:59.832Z,2140
2016-08-21T12:29:00.131Z,2910
2016-08-21T12:29:58.974Z,2115
2016-08-21T12:30:59.707Z,1625
2016-08-21T12:32:01.358Z,1600
2016-08-21T12:33:02.171Z,1565
2016-08-21T12:34:00.614Z,1970
2016-08-21T12:35:00.901Z,2050
2016-08-21T12:36:00.589Z,1450
2016-08-21T12:37:00.375Z,1225
2016-08-21T12:37:59.608Z,1090
2016-08-21T12:39:00.229Z,970
2016-08-21T12:40:00.362Z,865
2016-08-21T12:41:00.104Z,790
2016-08-21T12:42:01.220Z,740
2016-08-21T12:42:59.453Z,705
2016-08-21T12:44:00.199Z,695
2016-08-21T12:45:02.258Z,675
2016-08-21T12:46:01.101Z,670
2016-08-21T12:47:00.924Z,690
2016-08-21T12:48:01.524Z,730
2016-08-21T12:49:00.581Z,795
2016-08-21T12:50:02.544Z,880
2016-08-21T12:50:59.578Z,985
2016-08-21T12:52:02.966Z,1170
2016-08-21T12:53:00.580Z,1400
2016-08-21T12:54:00.243Z,1595
2016-08-21T12:54:59.302Z,2080
2016-08-21T12:56:02.075Z,1890
2016-08-21T12:56:59.844Z,1530
2016-08-21T12:58:01.823Z,1415
2016-08-21T12:59:02.682Z,1410
2016-08-21T13:00:02.200Z,1330
2016-08-21T13:01:02.904Z,1220
2016-08-21T13:02:02.275Z,1155
2016-08-21T13:03:01.967Z,1070
2016-08-21T13:04:03.132Z,965
2016-08-21T13:05:01.650Z,865
2016-08-21T13:06:01.256Z,795
2016-08-21T13:07:01.327Z,770
2016-08-21T13:08:04.873Z,795
2016-08-21T13:09:01.545Z,820
2016-08-21T13:10:02.525Z,850
2016-08-21T13:11:01.097Z,895
2016-08-21T13:12:03.972Z,975
2016-08-21T13:13:00.286Z,1100
2016-08-21T13:14:01.607Z,1335
2016-08-21T13:15:01.717Z,1280
2016-08-21T13:16:01.205Z,1235
2016-08-21T13:17:03.084Z,1115
2016-08-21T13:18:03.706Z,980
2016-08-21T13:19:03.254Z,780
2016-08-21T13:20:02.158Z,555
2016-08-21T13:21:02.531Z,375
2016-08-21T13:22:01.408Z,320
2016-08-21T13:23:01.554Z,350
2016-08-21T13:24:02.075Z,445
2016-08-21T13:25:01.919Z,580
2016-08-21T13:26:03.865Z,715
2016-08-21T13:27:02.790Z,2825
2016-08-21T13:28:01.107Z,1180
2016-08-21T13:29:02.481Z,1655
2016-08-21T13:30:02.941Z,1595
2016-08-21T13:31:01.991Z,1385
2016-08-21T13:32:02.880Z,1355
2016-08-21T13:33:02.384Z,1305
2016-08-21T13:34:02.639Z,1235
2016-08-21T13:35:01.181Z,1170
2016-08-21T13:36:03.408Z,1085
2016-08-21T13:37:01.722Z,990
2016-08-21T13:38:02.943Z,905
2016-08-21T13:39:04.584Z,795
2016-08-21T13:40:04.457Z,695
2016-08-21T13:41:03.717Z,605
2016-08-21T13:42:03.040Z,590
2016-08-21T13:43:02.998Z,620
2016-08-21T13:44:03.367Z,670
2016-08-21T13:45:02.833Z,735
2016-08-21T13:46:02.330Z,820
2016-08-21T13:47:03.644Z,915
2016-08-21T13:48:01.557Z,1055
2016-08-21T13:49:04.035Z,2695
2016-08-21T13:50:04.005Z,2380
2016-08-21T13:51:03.931Z,2640
2016-08-21T13:52:03.173Z,3645
2016-08-21T13:53:02.838Z,2940
2016-08-21T13:54:02.410Z,3220
2016-08-21T13:55:02.587Z,3395
2016-08-21T13:56:02.250Z,3275
2016-08-21T13:57:04.900Z,3105